sensor_id;sensor_type;location;lat;lon;timestamp;pressure;altitude;pressure_sealevel;temperature;humidity
6094;BME280;19964;42.060;24.700;2022-07-10T00:00:17;97304.31;;;19.43;71.38
6094;BME280;19964;42.060;24.700;2022-07-10T00:02:46;97298.09;;;19.39;71.15
6094;BME280;19964;42.060;24.700;2022-07-10T00:05:13;97310.38;;;19.43;71.04
6094;BME280;19964;42.060;24.700;2022-07-10T00:07:40;97298.72;;;19.31;71.31
6094;BME280;19964;42.060;24.700;2022-07-10T00:10:07;97308.31;;;19.40;72.06
6094;BME280;19964;42.060;24.700;2022-07-10T00:12:34;97304.53;;;19.28;72.29
6094;BME280;19964;42.060;24.700;2022-07-10T00:15:03;97305.03;;;19.30;72.53
6094;BME280;19964;42.060;24.700;2022-07-10T00:17:30;97304.03;;;19.26;72.34
6094;BME280;19964;42.060;24.700;2022-07-10T00:19:57;97304.03;;;19.26;71.99
6094;BME280;19964;42.060;24.700;2022-07-10T00:22:25;97293.09;;;19.19;72.46
6094;BME280;19964;42.060;24.700;2022-07-10T00:24:52;97304.88;;;19.21;72.24
6094;BME280;19964;42.060;24.700;2022-07-10T00:27:19;97302.09;;;19.31;71.55
6094;BME280;19964;42.060;24.700;2022-07-10T00:29:45;97301.69;;;19.24;71.62
6094;BME280;19964;42.060;24.700;2022-07-10T00:32:14;97291.19;;;19.24;72.15
6094;BME280;19964;42.060;24.700;2022-07-10T00:34:41;97279.28;;;19.13;71.48
6094;BME280;19964;42.060;24.700;2022-07-10T00:37:07;97277.13;;;19.15;71.64
6094;BME280;19964;42.060;24.700;2022-07-10T00:39:34;97273.53;;;19.11;71.60
6094;BME280;19964;42.060;24.700;2022-07-10T00:42:08;97276.66;;;19.13;71.74
6094;BME280;19964;42.060;24.700;2022-07-10T00:44:35;97277.63;;;19.17;71.83
6094;BME280;19964;42.060;24.700;2022-07-10T00:47:03;97267.53;;;19.06;71.90
6094;BME280;19964;42.060;24.700;2022-07-10T00:49:31;97273.78;;;19.10;71.27
6094;BME280;19964;42.060;24.700;2022-07-10T00:51:59;97263.06;;;19.06;71.63
6094;BME280;19964;42.060;24.700;2022-07-10T00:54:27;97266.84;;;19.19;71.78
6094;BME280;19964;42.060;24.700;2022-07-10T00:56:54;97219.38;;;18.78;71.61
6094;BME280;19964;42.060;24.700;2022-07-10T00:59:21;97259.44;;;19.02;71.69
6094;BME280;19964;42.060;24.700;2022-07-10T01:01:49;97254.69;;;19.04;71.10
6094;BME280;19964;42.060;24.700;2022-07-10T01:04:16;97254.50;;;19.01;71.45
6094;BME280;19964;42.060;24.700;2022-07-10T01:06:45;97247.09;;;19.03;71.13
6094;BME280;19964;42.060;24.700;2022-07-10T01:09:11;97244.19;;;19.04;70.88
6094;BME280;19964;42.060;24.700;2022-07-10T01:11:39;97245.38;;;19.12;70.65
6094;BME280;19964;42.060;24.700;2022-07-10T01:14:06;97250.03;;;19.01;71.16
6094;BME280;19964;42.060;24.700;2022-07-10T01:16:32;97249.81;;;18.98;70.99
6094;BME280;19964;42.060;24.700;2022-07-10T01:19:00;97250.94;;;19.10;71.04
6094;BME280;19964;42.060;24.700;2022-07-10T01:21:31;97247.66;;;19.00;71.03
6094;BME280;19964;42.060;24.700;2022-07-10T01:24:04;97245.63;;;18.97;71.23
6094;BME280;19964;42.060;24.700;2022-07-10T01:26:32;97240.03;;;19.03;70.97
6094;BME280;19964;42.060;24.700;2022-07-10T01:29:02;97238.22;;;18.99;70.68
6094;BME280;19964;42.060;24.700;2022-07-10T01:31:29;97234.78;;;19.03;70.30
6094;BME280;19964;42.060;24.700;2022-07-10T01:33:56;97228.53;;;18.99;70.46
6094;BME280;19964;42.060;24.700;2022-07-10T01:36:23;97231.06;;;19.04;70.57
6094;BME280;19964;42.060;24.700;2022-07-10T01:38:53;97230.22;;;19.09;70.68
6094;BME280;19964;42.060;24.700;2022-07-10T01:41:20;97232.75;;;19.14;70.14
6094;BME280;19964;42.060;24.700;2022-07-10T01:43:47;97229.78;;;19.20;69.89
6094;BME280;19964;42.060;24.700;2022-07-10T01:46:14;97232.13;;;19.22;69.38
6094;BME280;19964;42.060;24.700;2022-07-10T01:48:41;97235.53;;;19.22;69.44
6094;BME280;19964;42.060;24.700;2022-07-10T01:51:09;97227.56;;;19.27;69.77
6094;BME280;19964;42.060;24.700;2022-07-10T01:53:36;97234.09;;;19.30;69.53
6094;BME280;19964;42.060;24.700;2022-07-10T01:56:07;97224.53;;;19.20;69.88
6094;BME280;19964;42.060;24.700;2022-07-10T01:58:34;97223.88;;;19.28;69.39
6094;BME280;19964;42.060;24.700;2022-07-10T02:01:01;97222.53;;;19.31;69.70
6094;BME280;19964;42.060;24.700;2022-07-10T02:03:28;97213.56;;;19.32;69.76
6094;BME280;19964;42.060;24.700;2022-07-10T02:06:13;97221.81;;;19.25;70.23
6094;BME280;19964;42.060;24.700;2022-07-10T02:08:40;97214.38;;;19.32;70.61
6094;BME280;19964;42.060;24.700;2022-07-10T02:11:08;97214.56;;;19.17;70.45
6094;BME280;19964;42.060;24.700;2022-07-10T02:13:37;97204.00;;;19.04;71.52
6094;BME280;19964;42.060;24.700;2022-07-10T02:16:05;97197.22;;;19.03;72.38
6094;BME280;19964;42.060;24.700;2022-07-10T02:18:32;97195.31;;;18.90;72.28
6094;BME280;19964;42.060;24.700;2022-07-10T02:20:59;97185.09;;;18.88;72.46
6094;BME280;19964;42.060;24.700;2022-07-10T02:23:25;97183.19;;;18.94;72.48
6094;BME280;19964;42.060;24.700;2022-07-10T02:25:53;97182.69;;;18.92;71.77
6094;BME280;19964;42.060;24.700;2022-07-10T02:28:21;97198.16;;;18.93;71.95
6094;BME280;19964;42.060;24.700;2022-07-10T02:30:48;97197.66;;;18.91;72.42
6094;BME280;19964;42.060;24.700;2022-07-10T02:33:15;97203.09;;;18.95;72.43
6094;BME280;19964;42.060;24.700;2022-07-10T02:35:42;97210.06;;;19.04;72.75
6094;BME280;19964;42.060;24.700;2022-07-10T02:38:08;97211.47;;;18.97;73.47
6094;BME280;19964;42.060;24.700;2022-07-10T02:40:35;97211.06;;;18.90;73.59
6094;BME280;19964;42.060;24.700;2022-07-10T02:43:02;97175.56;;;18.55;73.77
6094;BME280;19964;42.060;24.700;2022-07-10T02:45:30;97215.19;;;18.96;73.82
6094;BME280;19964;42.060;24.700;2022-07-10T02:47:57;97220.56;;;18.86;74.20
6094;BME280;19964;42.060;24.700;2022-07-10T02:50:24;97215.25;;;18.72;74.91
6094;BME280;19964;42.060;24.700;2022-07-10T02:52:51;97206.66;;;18.67;75.83
6094;BME280;19964;42.060;24.700;2022-07-10T02:55:18;97214.53;;;18.67;75.53
6094;BME280;19964;42.060;24.700;2022-07-10T02:57:45;97205.22;;;18.55;75.86
6094;BME280;19964;42.060;24.700;2022-07-10T03:00:12;97218.78;;;18.62;74.84
6094;BME280;19964;42.060;24.700;2022-07-10T03:02:40;97220.34;;;18.63;75.12
6094;BME280;19964;42.060;24.700;2022-07-10T03:05:08;97213.72;;;18.47;75.73
6094;BME280;19964;42.060;24.700;2022-07-10T03:07:35;97222.66;;;18.46;75.98
6094;BME280;19964;42.060;24.700;2022-07-10T03:10:02;97212.56;;;18.35;76.21
6094;BME280;19964;42.060;24.700;2022-07-10T03:12:29;97224.50;;;18.46;76.60
6094;BME280;19964;42.060;24.700;2022-07-10T03:14:56;97225.66;;;18.58;75.59
6094;BME280;19964;42.060;24.700;2022-07-10T03:17:24;97231.47;;;18.55;75.83
6094;BME280;19964;42.060;24.700;2022-07-10T03:19:53;97231.53;;;18.50;76.29
6094;BME280;19964;42.060;24.700;2022-07-10T03:22:19;97220.94;;;18.37;76.63
6094;BME280;19964;42.060;24.700;2022-07-10T03:24:47;97224.56;;;18.41;76.56
6094;BME280;19964;42.060;24.700;2022-07-10T03:27:14;97216.78;;;18.31;76.90
6094;BME280;19964;42.060;24.700;2022-07-10T03:29:41;97219.84;;;18.43;76.23
6094;BME280;19964;42.060;24.700;2022-07-10T03:32:08;97218.09;;;18.33;75.82
6094;BME280;19964;42.060;24.700;2022-07-10T03:34:35;97221.25;;;18.30;75.85
6094;BME280;19964;42.060;24.700;2022-07-10T03:37:04;97221.53;;;18.29;76.34
6094;BME280;19964;42.060;24.700;2022-07-10T03:39:32;97218.34;;;18.32;76.18
6094;BME280;19964;42.060;24.700;2022-07-10T03:42:00;97217.84;;;18.30;76.76
6094;BME280;19964;42.060;24.700;2022-07-10T03:44:26;97212.19;;;18.41;76.78
6094;BME280;19964;42.060;24.700;2022-07-10T03:46:53;97203.69;;;18.31;76.73
6094;BME280;19964;42.060;24.700;2022-07-10T03:49:20;97193.47;;;18.29;77.07
6094;BME280;19964;42.060;24.700;2022-07-10T03:51:47;97198.31;;;18.41;76.63
6094;BME280;19964;42.060;24.700;2022-07-10T03:54:15;97204.94;;;18.57;76.66
6094;BME280;19964;42.060;24.700;2022-07-10T03:56:42;97212.53;;;18.77;76.04
6094;BME280;19964;42.060;24.700;2022-07-10T03:59:27;97209.41;;;19.12;75.72
6094;BME280;19964;42.060;24.700;2022-07-10T04:01:53;97203.91;;;19.27;74.57
6094;BME280;19964;42.060;24.700;2022-07-10T04:04:20;97208.78;;;19.52;73.18
6094;BME280;19964;42.060;24.700;2022-07-10T04:06:47;97203.56;;;19.66;73.45
6094;BME280;19964;42.060;24.700;2022-07-10T04:09:15;97208.94;;;19.88;72.25
6094;BME280;19964;42.060;24.700;2022-07-10T04:11:42;97202.03;;;19.92;71.47
6094;BME280;19964;42.060;24.700;2022-07-10T04:14:09;97160.44;;;19.67;71.84
6094;BME280;19964;42.060;24.700;2022-07-10T04:16:36;97209.44;;;20.17;71.08
6094;BME280;19964;42.060;24.700;2022-07-10T04:19:03;97204.78;;;20.42;70.48
6094;BME280;19964;42.060;24.700;2022-07-10T04:21:30;97203.50;;;20.53;71.09
6094;BME280;19964;42.060;24.700;2022-07-10T04:23:57;97203.56;;;20.75;69.49
6094;BME280;19964;42.060;24.700;2022-07-10T04:26:25;97208.88;;;20.83;67.98
6094;BME280;19964;42.060;24.700;2022-07-10T04:28:52;97196.38;;;21.02;69.55
6094;BME280;19964;42.060;24.700;2022-07-10T04:31:19;97201.31;;;21.17;68.17
6094;BME280;19964;42.060;24.700;2022-07-10T04:33:46;97188.22;;;21.12;68.21
6094;BME280;19964;42.060;24.700;2022-07-10T04:36:13;97190.84;;;20.90;68.29
6094;BME280;19964;42.060;24.700;2022-07-10T04:38:40;97196.75;;;21.09;68.06
6094;BME280;19964;42.060;24.700;2022-07-10T04:41:07;97203.00;;;21.44;66.85
6094;BME280;19964;42.060;24.700;2022-07-10T04:43:35;97209.63;;;21.64;65.66
6094;BME280;19964;42.060;24.700;2022-07-10T04:46:02;97214.94;;;21.94;64.87
6094;BME280;19964;42.060;24.700;2022-07-10T04:48:28;97213.72;;;22.00;63.56
6094;BME280;19964;42.060;24.700;2022-07-10T04:50:55;97216.44;;;22.18;63.85
6094;BME280;19964;42.060;24.700;2022-07-10T04:53:23;97209.16;;;22.23;63.63
6094;BME280;19964;42.060;24.700;2022-07-10T04:55:50;97227.06;;;22.43;64.31
6094;BME280;19964;42.060;24.700;2022-07-10T04:58:16;97231.31;;;22.61;62.48
6094;BME280;19964;42.060;24.700;2022-07-10T05:00:45;97227.47;;;22.84;61.62
6094;BME280;19964;42.060;24.700;2022-07-10T05:03:12;97220.19;;;22.98;61.01
6094;BME280;19964;42.060;24.700;2022-07-10T05:05:41;97228.09;;;22.90;60.46
6094;BME280;19964;42.060;24.700;2022-07-10T05:08:08;97213.94;;;23.12;60.79
6094;BME280;19964;42.060;24.700;2022-07-10T05:10:35;97227.03;;;23.34;59.71
6094;BME280;19964;42.060;24.700;2022-07-10T05:13:02;97236.47;;;23.60;58.75
6094;BME280;19964;42.060;24.700;2022-07-10T05:15:29;97235.75;;;23.34;58.58
6094;BME280;19964;42.060;24.700;2022-07-10T05:17:57;97234.16;;;23.50;59.27
6094;BME280;19964;42.060;24.700;2022-07-10T05:20:24;97229.44;;;23.81;59.49
6094;BME280;19964;42.060;24.700;2022-07-10T05:22:51;97237.06;;;23.74;58.64
6094;BME280;19964;42.060;24.700;2022-07-10T05:25:19;97231.34;;;23.64;58.52
6094;BME280;19964;42.060;24.700;2022-07-10T05:27:46;97232.22;;;23.85;58.42
6094;BME280;19964;42.060;24.700;2022-07-10T05:30:13;97228.22;;;23.70;58.16
6094;BME280;19964;42.060;24.700;2022-07-10T05:32:44;97230.97;;;23.91;57.99
6094;BME280;19964;42.060;24.700;2022-07-10T05:35:13;97227.16;;;24.09;58.01
6094;BME280;19964;42.060;24.700;2022-07-10T05:37:40;97214.38;;;23.73;56.89
6094;BME280;19964;42.060;24.700;2022-07-10T05:40:08;97225.13;;;24.15;58.13
6094;BME280;19964;42.060;24.700;2022-07-10T05:42:35;97201.00;;;24.16;55.60
6094;BME280;19964;42.060;24.700;2022-07-10T05:45:03;97232.91;;;24.49;55.79
6094;BME280;19964;42.060;24.700;2022-07-10T05:47:31;97232.19;;;24.90;55.86
6094;BME280;19964;42.060;24.700;2022-07-10T05:49:58;97190.50;;;24.78;55.99
6094;BME280;19964;42.060;24.700;2022-07-10T05:52:27;97222.50;;;24.73;55.21
6094;BME280;19964;42.060;24.700;2022-07-10T05:54:55;97234.72;;;25.07;54.55
6094;BME280;19964;42.060;24.700;2022-07-10T05:57:22;97226.75;;;25.07;54.48
6094;BME280;19964;42.060;24.700;2022-07-10T05:59:49;97232.59;;;25.00;54.93
6094;BME280;19964;42.060;24.700;2022-07-10T06:02:16;97221.13;;;24.67;56.83
6094;BME280;19964;42.060;24.700;2022-07-10T06:04:42;97220.13;;;24.71;56.54
6094;BME280;19964;42.060;24.700;2022-07-10T06:07:09;97232.31;;;25.34;54.42
6094;BME280;19964;42.060;24.700;2022-07-10T06:09:38;97220.19;;;25.45;54.67
6094;BME280;19964;42.060;24.700;2022-07-10T06:12:05;97222.41;;;25.43;54.38
6094;BME280;19964;42.060;24.700;2022-07-10T06:14:32;97230.97;;;25.08;56.08
6094;BME280;19964;42.060;24.700;2022-07-10T06:16:59;97226.75;;;25.07;54.86
6094;BME280;19964;42.060;24.700;2022-07-10T06:19:26;97214.81;;;24.51;56.35
6094;BME280;19964;42.060;24.700;2022-07-10T06:21:52;97214.56;;;24.64;55.97
6094;BME280;19964;42.060;24.700;2022-07-10T06:24:33;97222.91;;;24.54;57.00
6094;BME280;19964;42.060;24.700;2022-07-10T06:27:02;97163.97;;;23.99;58.00
6094;BME280;19964;42.060;24.700;2022-07-10T06:29:28;97214.22;;;24.16;57.89
6094;BME280;19964;42.060;24.700;2022-07-10T06:31:55;97203.56;;;24.54;57.17
6094;BME280;19964;42.060;24.700;2022-07-10T06:34:22;97211.59;;;24.45;57.57
6094;BME280;19964;42.060;24.700;2022-07-10T06:36:49;97212.97;;;24.22;58.48
6094;BME280;19964;42.060;24.700;2022-07-10T06:39:16;97211.84;;;24.23;58.20
6094;BME280;19964;42.060;24.700;2022-07-10T06:41:42;97213.56;;;24.28;57.02
6094;BME280;19964;42.060;24.700;2022-07-10T06:44:11;97223.91;;;24.41;58.62
6094;BME280;19964;42.060;24.700;2022-07-10T06:46:38;97217.69;;;24.08;58.73
6094;BME280;19964;42.060;24.700;2022-07-10T06:49:04;97209.88;;;24.41;58.10
6094;BME280;19964;42.060;24.700;2022-07-10T06:51:31;97222.28;;;24.28;58.69
6094;BME280;19964;42.060;24.700;2022-07-10T06:53:58;97228.84;;;24.51;58.22
6094;BME280;19964;42.060;24.700;2022-07-10T06:56:25;97217.81;;;24.12;58.83
6094;BME280;19964;42.060;24.700;2022-07-10T06:58:52;97194.91;;;24.16;57.56
6094;BME280;19964;42.060;24.700;2022-07-10T07:01:21;97221.53;;;24.48;57.93
6094;BME280;19964;42.060;24.700;2022-07-10T07:03:48;97223.91;;;24.91;58.29
6094;BME280;19964;42.060;24.700;2022-07-10T07:06:15;97225.75;;;24.79;58.25
6094;BME280;19964;42.060;24.700;2022-07-10T07:08:41;97216.19;;;24.57;59.31
6094;BME280;19964;42.060;24.700;2022-07-10T07:11:08;97210.34;;;24.63;60.65
6094;BME280;19964;42.060;24.700;2022-07-10T07:13:35;97207.09;;;24.37;59.12
6094;BME280;19964;42.060;24.700;2022-07-10T07:16:03;97206.53;;;24.82;61.85
6094;BME280;19964;42.060;24.700;2022-07-10T07:18:34;97212.50;;;24.49;58.10
6094;BME280;19964;42.060;24.700;2022-07-10T07:21:13;97203.91;;;24.52;58.43
6094;BME280;19964;42.060;24.700;2022-07-10T07:23:57;97209.06;;;24.78;57.91
6094;BME280;19964;42.060;24.700;2022-07-10T07:26:24;97213.78;;;24.93;57.13
6094;BME280;19964;42.060;24.700;2022-07-10T07:28:51;97214.22;;;24.95;57.71
6094;BME280;19964;42.060;24.700;2022-07-10T07:31:18;97217.78;;;25.20;57.27
6094;BME280;19964;42.060;24.700;2022-07-10T07:33:46;97215.69;;;25.05;57.17
6094;BME280;19964;42.060;24.700;2022-07-10T07:36:13;97206.13;;;25.12;58.53
6094;BME280;19964;42.060;24.700;2022-07-10T07:38:40;97169.81;;;25.25;56.89
6094;BME280;19964;42.060;24.700;2022-07-10T07:41:07;97203.28;;;25.95;57.32
6094;BME280;19964;42.060;24.700;2022-07-10T07:43:36;97207.34;;;25.68;56.02
6094;BME280;19964;42.060;24.700;2022-07-10T07:46:03;97197.19;;;25.82;57.35
6094;BME280;19964;42.060;24.700;2022-07-10T07:48:30;97201.06;;;25.97;53.82
6094;BME280;19964;42.060;24.700;2022-07-10T07:50:58;97214.59;;;26.40;53.77
6094;BME280;19964;42.060;24.700;2022-07-10T07:53:25;97197.94;;;26.91;55.60
6094;BME280;19964;42.060;24.700;2022-07-10T07:55:52;97212.94;;;26.72;54.41
6094;BME280;19964;42.060;24.700;2022-07-10T07:58:19;97204.53;;;26.45;54.23
6094;BME280;19964;42.060;24.700;2022-07-10T08:00:46;97199.91;;;26.94;53.56
6094;BME280;19964;42.060;24.700;2022-07-10T08:03:13;97199.84;;;26.67;54.07
6094;BME280;19964;42.060;24.700;2022-07-10T08:05:41;97203.09;;;27.40;54.67
6094;BME280;19964;42.060;24.700;2022-07-10T08:08:09;97209.31;;;27.59;51.83
6094;BME280;19964;42.060;24.700;2022-07-10T08:10:36;97203.59;;;27.88;52.89
6094;BME280;19964;42.060;24.700;2022-07-10T08:13:03;97207.28;;;27.41;51.48
6094;BME280;19964;42.060;24.700;2022-07-10T08:15:30;97216.66;;;27.35;51.14
6094;BME280;19964;42.060;24.700;2022-07-10T08:18:00;97209.50;;;27.11;52.22
6094;BME280;19964;42.060;24.700;2022-07-10T08:20:30;97200.84;;;26.74;52.46
6094;BME280;19964;42.060;24.700;2022-07-10T08:22:57;97166.34;;;26.14;53.28
6094;BME280;19964;42.060;24.700;2022-07-10T08:25:26;97190.94;;;26.11;56.01
6094;BME280;19964;42.060;24.700;2022-07-10T08:27:59;97202.41;;;26.63;54.00
6094;BME280;19964;42.060;24.700;2022-07-10T08:30:26;97209.59;;;26.75;54.56
6094;BME280;19964;42.060;24.700;2022-07-10T08:32:53;97210.63;;;26.58;53.03
6094;BME280;19964;42.060;24.700;2022-07-10T08:35:20;97210.19;;;26.32;53.66
6094;BME280;19964;42.060;24.700;2022-07-10T08:37:47;97209.84;;;26.33;53.13
6094;BME280;19964;42.060;24.700;2022-07-10T08:40:15;97206.97;;;26.26;55.81
6094;BME280;19964;42.060;24.700;2022-07-10T08:42:45;97212.63;;;26.13;56.79
6094;BME280;19964;42.060;24.700;2022-07-10T08:45:13;97204.75;;;26.28;55.09
6094;BME280;19964;42.060;24.700;2022-07-10T08:47:40;97207.16;;;25.85;53.86
6094;BME280;19964;42.060;24.700;2022-07-10T08:50:16;97203.00;;;26.20;55.84
6094;BME280;19964;42.060;24.700;2022-07-10T08:52:50;97196.75;;;27.16;54.15
6094;BME280;19964;42.060;24.700;2022-07-10T08:55:23;97208.47;;;27.86;52.33
6094;BME280;19964;42.060;24.700;2022-07-10T08:57:53;97209.28;;;28.18;50.79
6094;BME280;19964;42.060;24.700;2022-07-10T09:00:21;97209.50;;;27.82;50.31
6094;BME280;19964;42.060;24.700;2022-07-10T09:02:48;97211.38;;;27.66;52.91
6094;BME280;19964;42.060;24.700;2022-07-10T09:05:15;97204.81;;;26.80;53.92
6094;BME280;19964;42.060;24.700;2022-07-10T09:07:42;97209.69;;;27.18;52.90
6094;BME280;19964;42.060;24.700;2022-07-10T09:10:11;97201.88;;;27.25;54.27
6094;BME280;19964;42.060;24.700;2022-07-10T09:12:58;97209.72;;;28.04;52.42
6094;BME280;19964;42.060;24.700;2022-07-10T09:15:26;97215.09;;;27.34;53.31
6094;BME280;19964;42.060;24.700;2022-07-10T09:17:56;97219.56;;;27.17;52.83
6094;BME280;19964;42.060;24.700;2022-07-10T09:20:31;97218.94;;;27.08;53.05
6094;BME280;19964;42.060;24.700;2022-07-10T09:22:59;97216.75;;;26.98;52.73
6094;BME280;19964;42.060;24.700;2022-07-10T09:25:35;97218.72;;;28.15;51.11
6094;BME280;19964;42.060;24.700;2022-07-10T09:28:04;97215.00;;;28.51;50.63
6094;BME280;19964;42.060;24.700;2022-07-10T09:30:35;97215.28;;;28.31;50.42
6094;BME280;19964;42.060;24.700;2022-07-10T09:33:16;97207.94;;;28.43;49.02
6094;BME280;19964;42.060;24.700;2022-07-10T09:35:57;97216.16;;;28.54;49.86
6094;BME280;19964;42.060;24.700;2022-07-10T09:38:50;97205.47;;;29.42;50.01
6094;BME280;19964;42.060;24.700;2022-07-10T09:41:19;97213.66;;;29.72;48.70
6094;BME280;19964;42.060;24.700;2022-07-10T09:43:49;97206.97;;;28.67;49.19
6094;BME280;19964;42.060;24.700;2022-07-10T09:46:17;97200.00;;;27.96;48.70
6094;BME280;19964;42.060;24.700;2022-07-10T09:48:44;97210.25;;;27.67;47.94
6094;BME280;19964;42.060;24.700;2022-07-10T09:51:11;97204.88;;;27.79;51.76
6094;BME280;19964;42.060;24.700;2022-07-10T09:53:40;97203.25;;;27.47;51.96
6094;BME280;19964;42.060;24.700;2022-07-10T09:56:08;97158.44;;;27.21;50.01
6094;BME280;19964;42.060;24.700;2022-07-10T09:58:36;97210.00;;;27.87;51.71
6094;BME280;19964;42.060;24.700;2022-07-10T10:01:05;97206.75;;;27.35;49.68
6094;BME280;19964;42.060;24.700;2022-07-10T10:03:33;97208.34;;;26.84;52.52
6094;BME280;19964;42.060;24.700;2022-07-10T10:06:09;97204.75;;;27.04;53.57
6094;BME280;19964;42.060;24.700;2022-07-10T10:08:48;97133.28;;;26.11;53.17
6094;BME280;19964;42.060;24.700;2022-07-10T10:11:20;97207.88;;;26.42;52.01
6094;BME280;19964;42.060;24.700;2022-07-10T10:13:48;97207.31;;;26.37;53.63
6094;BME280;19964;42.060;24.700;2022-07-10T10:16:19;97197.63;;;26.81;53.98
6094;BME280;19964;42.060;24.700;2022-07-10T10:18:46;97201.03;;;26.93;54.32
6094;BME280;19964;42.060;24.700;2022-07-10T10:21:31;97199.78;;;27.03;54.05
6094;BME280;19964;42.060;24.700;2022-07-10T10:24:00;97192.25;;;27.05;55.25
6094;BME280;19964;42.060;24.700;2022-07-10T10:26:27;97189.97;;;27.19;54.13
6094;BME280;19964;42.060;24.700;2022-07-10T10:28:55;97196.22;;;27.54;52.47
6094;BME280;19964;42.060;24.700;2022-07-10T10:31:27;97189.25;;;27.93;52.57
6094;BME280;19964;42.060;24.700;2022-07-10T10:33:55;97199.28;;;28.15;51.00
6094;BME280;19964;42.060;24.700;2022-07-10T10:36:44;97187.44;;;28.28;51.88
6094;BME280;19964;42.060;24.700;2022-07-10T10:39:13;97181.84;;;28.87;50.49
6094;BME280;19964;42.060;24.700;2022-07-10T10:41:46;97178.91;;;27.91;50.20
6094;BME280;19964;42.060;24.700;2022-07-10T10:44:24;97188.34;;;27.42;51.98
6094;BME280;19964;42.060;24.700;2022-07-10T10:47:01;97189.22;;;27.62;50.87
6094;BME280;19964;42.060;24.700;2022-07-10T10:49:53;97183.97;;;27.65;51.97
6094;BME280;19964;42.060;24.700;2022-07-10T10:52:22;97178.84;;;28.03;49.31
6094;BME280;19964;42.060;24.700;2022-07-10T10:55:00;97182.06;;;28.44;50.43
6094;BME280;19964;42.060;24.700;2022-07-10T10:57:37;97185.78;;;27.77;49.00
6094;BME280;19964;42.060;24.700;2022-07-10T11:00:07;97180.81;;;27.32;50.46
6094;BME280;19964;42.060;24.700;2022-07-10T11:02:37;97155.44;;;26.79;50.08
6094;BME280;19964;42.060;24.700;2022-07-10T11:05:39;97180.69;;;27.56;50.11
6094;BME280;19964;42.060;24.700;2022-07-10T11:08:08;97167.53;;;28.06;53.34
6094;BME280;19964;42.060;24.700;2022-07-10T11:10:36;97168.03;;;28.12;46.74
6094;BME280;19964;42.060;24.700;2022-07-10T11:13:04;97167.41;;;27.28;49.58
6094;BME280;19964;42.060;24.700;2022-07-10T11:15:33;97163.06;;;27.08;49.66
6094;BME280;19964;42.060;24.700;2022-07-10T11:18:04;97153.16;;;26.93;52.11
6094;BME280;19964;42.060;24.700;2022-07-10T11:20:34;97143.09;;;27.14;51.17
6094;BME280;19964;42.060;24.700;2022-07-10T11:23:29;97152.13;;;27.25;50.03
6094;BME280;19964;42.060;24.700;2022-07-10T11:26:03;97145.69;;;27.26;51.50
6094;BME280;19964;42.060;24.700;2022-07-10T11:28:48;97141.31;;;27.18;50.59
6094;BME280;19964;42.060;24.700;2022-07-10T11:31:16;97149.59;;;27.01;50.56
6094;BME280;19964;42.060;24.700;2022-07-10T11:33:45;97135.94;;;27.03;52.19
6094;BME280;19964;42.060;24.700;2022-07-10T11:36:15;97134.28;;;26.98;51.32
6094;BME280;19964;42.060;24.700;2022-07-10T11:38:43;97139.03;;;27.33;50.86
6094;BME280;19964;42.060;24.700;2022-07-10T11:41:15;97131.06;;;27.33;48.28
6094;BME280;19964;42.060;24.700;2022-07-10T11:43:49;97094.09;;;27.31;47.89
6094;BME280;19964;42.060;24.700;2022-07-10T11:46:17;97140.09;;;27.90;47.54
6094;BME280;19964;42.060;24.700;2022-07-10T11:48:45;97144.16;;;28.35;44.86
6094;BME280;19964;42.060;24.700;2022-07-10T11:51:23;97146.50;;;27.89;45.55
6094;BME280;19964;42.060;24.700;2022-07-10T11:53:56;97135.53;;;27.91;47.26
6094;BME280;19964;42.060;24.700;2022-07-10T11:56:24;97128.84;;;28.12;47.13
6094;BME280;19964;42.060;24.700;2022-07-10T11:58:55;97133.16;;;28.71;48.59
6094;BME280;19964;42.060;24.700;2022-07-10T12:01:22;97131.53;;;28.85;46.12
6094;BME280;19964;42.060;24.700;2022-07-10T12:04:01;97138.13;;;28.91;47.13
6094;BME280;19964;42.060;24.700;2022-07-10T12:06:28;97128.31;;;28.57;46.94
6094;BME280;19964;42.060;24.700;2022-07-10T12:08:56;97122.53;;;28.05;48.11
6094;BME280;19964;42.060;24.700;2022-07-10T12:11:27;97119.31;;;27.96;46.70
6094;BME280;19964;42.060;24.700;2022-07-10T12:14:08;97119.31;;;27.21;45.38
6094;BME280;19964;42.060;24.700;2022-07-10T12:16:36;97065.84;;;26.95;48.59
6094;BME280;19964;42.060;24.700;2022-07-10T12:19:07;97106.41;;;27.36;48.91
6094;BME280;19964;42.060;24.700;2022-07-10T12:21:35;97105.22;;;27.64;48.23
6094;BME280;19964;42.060;24.700;2022-07-10T12:24:02;97111.91;;;27.74;46.09
6094;BME280;19964;42.060;24.700;2022-07-10T12:26:33;97111.66;;;27.63;45.48
6094;BME280;19964;42.060;24.700;2022-07-10T12:29:02;97114.03;;;27.84;46.50
6094;BME280;19964;42.060;24.700;2022-07-10T12:31:31;97107.28;;;27.12;46.72
6094;BME280;19964;42.060;24.700;2022-07-10T12:33:59;97097.78;;;27.11;46.57
6094;BME280;19964;42.060;24.700;2022-07-10T12:36:48;97107.78;;;27.61;46.18
6094;BME280;19964;42.060;24.700;2022-07-10T12:39:17;97091.44;;;27.93;45.62
6094;BME280;19964;42.060;24.700;2022-07-10T12:41:57;97093.09;;;27.82;45.60
6094;BME280;19964;42.060;24.700;2022-07-10T12:44:32;97101.94;;;28.02;47.03
6094;BME280;19964;42.060;24.700;2022-07-10T12:47:03;97090.22;;;28.22;46.42
6094;BME280;19964;42.060;24.700;2022-07-10T12:49:50;97094.72;;;28.37;45.43
6094;BME280;19964;42.060;24.700;2022-07-10T12:52:23;97098.25;;;28.79;43.65
6094;BME280;19964;42.060;24.700;2022-07-10T12:55:05;97080.16;;;28.69;43.81
6094;BME280;19964;42.060;24.700;2022-07-10T12:57:33;97093.72;;;29.02;43.21
6094;BME280;19964;42.060;24.700;2022-07-10T13:00:16;97089.97;;;28.84;41.41
6094;BME280;19964;42.060;24.700;2022-07-10T13:02:44;97092.97;;;28.83;42.00
6094;BME280;19964;42.060;24.700;2022-07-10T13:05:25;97084.25;;;28.29;45.52
6094;BME280;19964;42.060;24.700;2022-07-10T13:08:04;97087.25;;;27.77;43.53
6094;BME280;19964;42.060;24.700;2022-07-10T13:10:32;97084.50;;;27.89;46.38